createdAt,value
2023-04-09T00:02:23.602Z,12.80
2023-04-09T00:05:09.736Z,12.80
2023-04-09T00:07:56.377Z,12.80
2023-04-09T00:10:41.912Z,12.80
2023-04-09T00:13:38.449Z,12.70
2023-04-09T00:16:25.092Z,12.70
2023-04-09T00:19:12.128Z,12.70
2023-04-09T00:21:57.703Z,12.70
2023-04-09T00:24:44.226Z,12.70
2023-04-09T00:27:30.017Z,12.70
2023-04-09T00:30:16.267Z,12.70
2023-04-09T00:33:02.260Z,12.70
2023-04-09T00:35:48.435Z,12.70
2023-04-09T00:38:34.000Z,12.70
2023-04-09T00:41:19.790Z,12.70
2023-04-09T00:44:05.496Z,12.70
2023-04-09T00:46:52.163Z,12.70
2023-04-09T00:49:37.570Z,12.70
2023-04-09T00:52:24.899Z,12.70
2023-04-09T00:55:10.816Z,12.60
2023-04-09T00:57:57.009Z,12.60
2023-04-09T01:00:43.084Z,12.60
2023-04-09T01:03:29.753Z,12.60
2023-04-09T01:06:28.567Z,12.70
2023-04-09T01:09:31.120Z,12.70
2023-04-09T01:12:35.947Z,12.70
2023-04-09T01:15:34.124Z,12.70
2023-04-09T01:18:34.948Z,12.70
2023-04-09T01:21:27.521Z,12.70
2023-04-09T01:24:48.365Z,12.70
2023-04-09T01:28:20.115Z,12.70
2023-04-09T01:31:15.867Z,12.70
2023-04-09T01:34:02.672Z,12.70
2023-04-09T01:36:55.913Z,12.70
2023-04-09T01:39:41.936Z,12.60
2023-04-09T01:42:28.999Z,12.60
2023-04-09T01:45:15.919Z,12.60
2023-04-09T01:48:02.516Z,12.60
2023-04-09T01:50:49.491Z,12.70
2023-04-09T01:53:35.439Z,12.60
2023-04-09T01:56:21.389Z,12.60
2023-04-09T01:59:07.749Z,12.60
2023-04-09T02:02:11.202Z,12.60
2023-04-09T02:04:59.057Z,12.60
2023-04-09T02:07:48.733Z,12.60
2023-04-09T02:10:36.859Z,12.60
2023-04-09T02:13:25.820Z,12.60
2023-04-09T02:16:15.766Z,12.60
2023-04-09T02:19:02.102Z,12.60
2023-04-09T02:21:47.833Z,12.60
2023-04-09T02:24:33.527Z,12.60
2023-04-09T02:27:19.261Z,12.50
2023-04-09T02:30:06.016Z,12.50
2023-04-09T02:32:51.918Z,12.60
2023-04-09T02:35:37.409Z,12.50
2023-04-09T02:38:23.094Z,12.60
2023-04-09T02:41:09.841Z,12.60
2023-04-09T02:43:55.797Z,12.50
2023-04-09T02:46:42.893Z,12.60
2023-04-09T02:49:28.341Z,12.50
2023-04-09T02:52:14.662Z,12.50
2023-04-09T02:55:00.827Z,12.50
2023-04-09T02:57:46.594Z,12.50
2023-04-09T03:00:32.983Z,12.50
2023-04-09T03:03:18.876Z,12.50
2023-04-09T03:06:04.883Z,12.50
2023-04-09T03:08:51.109Z,12.50
2023-04-09T03:11:37.083Z,12.50
2023-04-09T03:14:23.744Z,12.50
2023-04-09T03:17:09.173Z,12.50
2023-04-09T03:19:55.035Z,12.60
2023-04-09T03:22:41.265Z,12.60
2023-04-09T03:25:39.348Z,12.60
2023-04-09T03:28:33.632Z,12.60
2023-04-09T03:31:19.532Z,12.60
2023-04-09T03:34:06.304Z,12.60
2023-04-09T03:36:52.397Z,12.60
2023-04-09T03:39:44.375Z,12.60
2023-04-09T03:42:30.364Z,12.60
2023-04-09T03:45:16.420Z,12.60
2023-04-09T03:48:04.882Z,12.60
2023-04-09T03:50:50.885Z,12.60
2023-04-09T03:53:44.110Z,12.60
2023-04-09T03:56:29.711Z,12.60
2023-04-09T03:59:16.719Z,12.60
2023-04-09T04:02:05.758Z,12.60
2023-04-09T04:04:54.158Z,12.60
2023-04-09T04:07:44.084Z,12.60
2023-04-09T04:10:36.903Z,12.60
2023-04-09T04:13:22.849Z,12.60
2023-04-09T04:16:14.661Z,12.60
2023-04-09T04:19:00.549Z,12.60
2023-04-09T04:21:48.651Z,12.60
2023-04-09T04:24:35.005Z,12.60
2023-04-09T04:27:21.319Z,12.60
2023-04-09T04:30:09.913Z,12.60
2023-04-09T04:33:04.288Z,12.50
2023-04-09T04:36:09.379Z,12.60
2023-04-09T04:38:59.397Z,12.50
2023-04-09T04:41:50.854Z,12.50
2023-04-09T04:44:41.375Z,12.50
2023-04-09T04:47:34.403Z,12.50
2023-04-09T04:50:22.906Z,12.40
2023-04-09T04:53:16.473Z,12.50
2023-04-09T04:56:07.812Z,12.50
2023-04-09T04:58:54.138Z,12.50
2023-04-09T05:01:40.722Z,12.50
2023-04-09T05:04:29.696Z,12.50
2023-04-09T05:07:16.089Z,12.50
2023-04-09T05:10:09.465Z,12.50
2023-04-09T05:12:59.208Z,12.50
2023-04-09T05:15:51.067Z,12.50
2023-04-09T05:18:37.089Z,12.60
2023-04-09T05:21:23.262Z,12.60
2023-04-09T05:24:11.787Z,12.60
2023-04-09T05:26:58.722Z,12.60
2023-04-09T05:29:45.885Z,12.60
2023-04-09T05:32:31.936Z,12.60
2023-04-09T05:35:18.869Z,12.60
2023-04-09T05:38:04.816Z,12.60
2023-04-09T05:40:51.332Z,12.60
2023-04-09T05:43:37.485Z,12.70
2023-04-09T05:46:23.417Z,12.70
2023-04-09T05:49:10.016Z,12.70
2023-04-09T05:51:57.418Z,12.60
2023-04-09T05:54:46.634Z,12.60
2023-04-09T05:57:37.473Z,12.60
2023-04-09T06:00:23.270Z,12.60
2023-04-09T06:03:09.880Z,12.60
2023-04-09T06:05:56.146Z,12.60
2023-04-09T06:08:42.028Z,12.60
2023-04-09T06:11:28.984Z,12.60
2023-04-09T06:14:18.019Z,12.70
2023-04-09T06:17:03.819Z,12.70
2023-04-09T06:19:49.485Z,12.70
2023-04-09T06:22:35.490Z,12.70
2023-04-09T06:25:21.546Z,12.80
2023-04-09T06:28:07.561Z,12.80
2023-04-09T06:30:55.103Z,12.80
2023-04-09T06:33:40.508Z,12.90
2023-04-09T06:36:27.325Z,12.90
2023-04-09T06:39:13.142Z,12.90
2023-04-09T06:41:59.651Z,12.90
2023-04-09T06:45:08.606Z,12.90
2023-04-09T06:47:54.438Z,12.90
2023-04-09T06:50:40.381Z,12.90
2023-04-09T06:53:26.402Z,12.90
2023-04-09T06:56:12.314Z,12.90
2023-04-09T06:58:58.211Z,12.80
2023-04-09T07:01:44.080Z,12.80
2023-04-09T07:04:30.278Z,12.80
2023-04-09T07:07:16.012Z,12.70
2023-04-09T07:10:01.757Z,12.70
2023-04-09T07:12:47.888Z,12.70
2023-04-09T07:15:33.546Z,12.70
2023-04-09T07:18:20.246Z,12.80
2023-04-09T07:21:06.290Z,12.80
2023-04-09T07:23:52.372Z,12.90
2023-04-09T07:26:38.192Z,12.90
2023-04-09T07:29:23.913Z,12.90
2023-04-09T07:32:09.711Z,12.90
2023-04-09T07:34:55.828Z,12.90
2023-04-09T07:37:41.786Z,12.90
2023-04-09T07:40:28.233Z,12.90
2023-04-09T07:43:14.565Z,12.90
2023-04-09T07:46:01.123Z,13.00
2023-04-09T07:48:48.334Z,13.00
2023-04-09T07:51:34.568Z,13.00
2023-04-09T07:54:23.140Z,13.00
2023-04-09T07:57:08.740Z,12.90
2023-04-09T07:59:55.555Z,12.90
2023-04-09T08:02:41.503Z,12.90
2023-04-09T08:05:28.387Z,12.90
2023-04-09T08:08:13.763Z,12.90
2023-04-09T08:10:59.480Z,12.90
2023-04-09T08:13:45.311Z,12.90
2023-04-09T08:16:31.192Z,12.90
2023-04-09T08:19:18.073Z,12.90
2023-04-09T08:22:03.665Z,12.80
2023-04-09T08:24:53.380Z,12.80
2023-04-09T08:27:39.740Z,12.80
2023-04-09T08:30:25.891Z,12.70
2023-04-09T08:33:12.290Z,12.70
2023-04-09T08:35:58.352Z,12.90
2023-04-09T08:38:47.032Z,13.20
2023-04-09T08:41:32.777Z,13.50
2023-04-09T08:44:18.756Z,13.60
2023-04-09T08:47:11.770Z,13.70
2023-04-09T08:49:57.731Z,13.80
2023-04-09T08:52:46.480Z,13.80
2023-04-09T08:55:35.111Z,13.80
2023-04-09T08:58:20.440Z,13.90
2023-04-09T09:01:18.831Z,14.00
2023-04-09T09:04:07.959Z,14.00
2023-04-09T09:06:55.429Z,14.10
2023-04-09T09:09:57.891Z,14.20
2023-04-09T09:12:43.721Z,14.30
2023-04-09T09:15:30.609Z,14.30
2023-04-09T09:18:18.360Z,14.30
2023-04-09T09:21:11.712Z,14.30
2023-04-09T09:23:58.969Z,14.30
2023-04-09T09:26:44.963Z,14.20
2023-04-09T09:29:32.227Z,14.20
2023-04-09T09:32:19.594Z,14.20
2023-04-09T09:35:07.343Z,14.20
2023-04-09T09:38:05.726Z,14.30
2023-04-09T09:40:52.802Z,14.40
2023-04-09T09:43:42.494Z,14.60
2023-04-09T09:46:32.042Z,14.70
2023-04-09T09:49:17.584Z,14.80
2023-04-09T09:52:07.739Z,14.90
2023-04-09T09:54:56.259Z,15.00
2023-04-09T09:57:45.806Z,15.00
2023-04-09T10:00:33.805Z,15.00
2023-04-09T10:03:28.489Z,15.20
2023-04-09T10:06:15.677Z,15.20
2023-04-09T10:09:06.841Z,15.30
2023-04-09T10:11:53.090Z,15.40
2023-04-09T10:14:40.802Z,15.60
2023-04-09T10:17:26.969Z,15.80
2023-04-09T10:20:31.294Z,16.00
2023-04-09T10:23:32.058Z,16.20
2023-04-09T10:26:19.782Z,16.30
2023-04-09T10:29:14.743Z,16.30
2023-04-09T10:32:04.594Z,16.40
2023-04-09T10:34:50.969Z,16.40
2023-04-09T10:37:36.745Z,16.50
2023-04-09T10:40:22.949Z,16.50
2023-04-09T10:43:10.534Z,16.50
2023-04-09T10:46:02.192Z,16.50
2023-04-09T10:48:47.914Z,16.50
2023-04-09T10:51:41.182Z,16.60
2023-04-09T10:54:36.195Z,16.60
2023-04-09T10:57:24.518Z,16.60
2023-04-09T11:00:11.566Z,16.60
2023-04-09T11:03:05.812Z,16.70
2023-04-09T11:06:07.290Z,16.80
2023-04-09T11:08:53.041Z,16.90
2023-04-09T11:11:39.374Z,17.00
2023-04-09T11:14:25.908Z,17.10
2023-04-09T11:17:11.590Z,17.10
2023-04-09T11:19:57.061Z,17.10
2023-04-09T11:22:42.701Z,17.10
2023-04-09T11:25:33.952Z,17.10
2023-04-09T11:28:20.414Z,17.10
2023-04-09T11:31:07.347Z,17.20
2023-04-09T11:33:53.212Z,17.20
2023-04-09T11:36:38.808Z,17.20
2023-04-09T11:39:24.973Z,17.20
2023-04-09T11:42:16.779Z,17.30
2023-04-09T11:45:03.879Z,17.30
2023-04-09T11:47:50.006Z,17.30
2023-04-09T11:50:37.654Z,17.20
2023-04-09T11:53:27.892Z,17.10
2023-04-09T11:56:13.869Z,17.10
2023-04-09T11:58:59.565Z,17.10
2023-04-09T12:01:50.933Z,17.00
2023-04-09T12:04:37.048Z,17.00
2023-04-09T12:07:23.182Z,17.10
2023-04-09T12:10:10.766Z,17.10
2023-04-09T12:13:06.756Z,17.20
2023-04-09T12:15:52.672Z,17.30
2023-04-09T12:18:39.336Z,17.40
2023-04-09T12:21:27.408Z,17.50
2023-04-09T12:24:13.282Z,17.60
2023-04-09T12:26:59.200Z,17.60
2023-04-09T12:29:46.050Z,17.60
2023-04-09T12:32:32.019Z,17.60
2023-04-09T12:35:18.019Z,17.60
2023-04-09T12:38:05.106Z,17.60
2023-04-09T12:40:51.150Z,17.70
2023-04-09T12:43:37.233Z,17.60
2023-04-09T12:46:23.353Z,17.60
2023-04-09T12:49:09.303Z,17.50
2023-04-09T12:51:55.032Z,17.40
2023-04-09T12:54:40.500Z,17.40
2023-04-09T12:57:26.230Z,17.40
2023-04-09T13:00:13.026Z,17.40
2023-04-09T13:02:58.630Z,17.40
2023-04-09T13:05:44.822Z,17.60
2023-04-09T13:08:31.180Z,17.80
2023-04-09T13:11:17.418Z,17.80
2023-04-09T13:14:03.554Z,17.70
2023-04-09T13:16:50.186Z,17.70
2023-04-09T13:19:36.193Z,17.60
2023-04-09T13:22:21.817Z,17.60
2023-04-09T13:25:07.649Z,17.60
2023-04-09T13:27:53.405Z,17.70
2023-04-09T13:30:38.989Z,17.70
2023-04-09T13:33:24.904Z,17.70
2023-04-09T13:36:10.677Z,17.60
2023-04-09T13:38:56.512Z,17.60
2023-04-09T13:41:42.423Z,17.70
2023-04-09T13:44:29.112Z,17.80
2023-04-09T13:47:17.390Z,17.80
2023-04-09T13:50:04.269Z,17.80
2023-04-09T13:52:50.393Z,17.80
2023-04-09T13:55:36.586Z,17.90
2023-04-09T13:58:23.479Z,17.90
2023-04-09T14:01:09.813Z,17.80
2023-04-09T14:03:55.963Z,17.80
2023-04-09T14:06:42.695Z,17.70
2023-04-09T14:09:28.368Z,17.70
2023-04-09T14:12:13.869Z,17.60
2023-04-09T14:15:00.696Z,17.50
2023-04-09T14:17:46.244Z,17.40
2023-04-09T14:20:33.844Z,17.40
2023-04-09T14:23:19.563Z,17.40
2023-04-09T14:26:06.959Z,17.40
2023-04-09T14:28:53.148Z,17.30
2023-04-09T14:31:41.435Z,17.20
2023-04-09T14:34:30.109Z,17.20
2023-04-09T14:37:16.666Z,17.20
2023-04-09T14:40:02.456Z,17.10
2023-04-09T14:42:48.743Z,17.10
2023-04-09T14:45:34.782Z,17.10
2023-04-09T14:48:20.929Z,17.20
2023-04-09T14:51:09.826Z,17.10
2023-04-09T14:53:58.464Z,17.10
2023-04-09T14:56:44.427Z,17.10
2023-04-09T14:59:30.396Z,17.00
2023-04-09T15:02:17.403Z,17.00
2023-04-09T15:05:05.570Z,17.10
2023-04-09T15:07:51.365Z,17.10
2023-04-09T15:10:45.670Z,17.10
2023-04-09T15:13:31.424Z,17.10
2023-04-09T15:16:28.878Z,17.10
2023-04-09T15:19:15.886Z,17.00
2023-04-09T15:22:01.865Z,17.00
2023-04-09T15:24:47.771Z,16.90
2023-04-09T15:27:33.812Z,16.90
2023-04-09T15:30:22.162Z,16.90
2023-04-09T15:33:08.369Z,16.90
2023-04-09T15:35:54.867Z,16.80
2023-04-09T15:38:43.277Z,16.80
2023-04-09T15:41:35.371Z,16.70
2023-04-09T15:44:21.340Z,16.70
2023-04-09T15:47:08.730Z,16.70
2023-04-09T15:49:56.074Z,16.70
2023-04-09T15:52:45.882Z,16.70
2023-04-09T15:55:34.678Z,16.70
2023-04-09T15:58:20.842Z,16.60
2023-04-09T16:01:10.054Z,16.60
2023-04-09T16:03:56.360Z,16.60
2023-04-09T16:06:42.429Z,16.60
2023-04-09T16:09:28.932Z,16.60
2023-04-09T16:12:14.756Z,16.60
2023-04-09T16:15:00.838Z,16.60
2023-04-09T16:17:46.793Z,16.60
2023-04-09T16:20:32.590Z,16.60
2023-04-09T16:23:18.471Z,16.60
2023-04-09T16:26:04.678Z,16.60
2023-04-09T16:28:50.550Z,16.60
2023-04-09T16:31:39.198Z,16.60
2023-04-09T16:34:25.149Z,16.60
2023-04-09T16:37:11.275Z,16.50
2023-04-09T16:39:58.132Z,16.50
2023-04-09T16:42:43.608Z,16.50
2023-04-09T16:45:29.862Z,16.50
2023-04-09T16:48:16.318Z,16.50
2023-04-09T16:51:01.845Z,16.50
2023-04-09T16:53:47.433Z,16.50
2023-04-09T16:56:33.532Z,16.50
2023-04-09T16:59:20.986Z,16.50
2023-04-09T17:02:07.300Z,16.50
2023-04-09T17:04:53.933Z,16.40
2023-04-09T17:07:39.779Z,16.40
2023-04-09T17:10:25.676Z,16.40
2023-04-09T17:13:12.399Z,16.30
2023-04-09T17:15:58.656Z,16.30
2023-04-09T17:18:45.579Z,16.30
2023-04-09T17:21:32.367Z,16.20
2023-04-09T17:24:18.088Z,16.20
2023-04-09T17:27:04.907Z,16.20
2023-04-09T17:29:52.234Z,16.10
2023-04-09T17:32:41.814Z,16.10
2023-04-09T17:35:32.385Z,16.00
2023-04-09T17:38:24.939Z,16.00
2023-04-09T17:41:13.494Z,16.00
2023-04-09T17:44:03.689Z,15.90
2023-04-09T17:46:55.710Z,15.90
2023-04-09T17:49:41.480Z,15.90
2023-04-09T17:52:30.201Z,15.90
2023-04-09T17:55:27.534Z,15.80
2023-04-09T17:58:16.696Z,15.80
2023-04-09T18:01:09.700Z,15.80
2023-04-09T18:04:01.230Z,15.80
2023-04-09T18:06:47.752Z,15.80
2023-04-09T18:09:39.341Z,15.80
2023-04-09T18:12:35.850Z,15.80
2023-04-09T18:15:28.828Z,15.70
2023-04-09T18:18:19.287Z,15.70
2023-04-09T18:21:06.448Z,15.70
2023-04-09T18:23:52.709Z,15.60
2023-04-09T18:26:38.805Z,15.60
2023-04-09T18:29:26.872Z,15.60
2023-04-09T18:32:13.678Z,15.60
2023-04-09T18:34:59.608Z,15.60
2023-04-09T18:37:45.954Z,15.50
2023-04-09T18:40:32.320Z,15.50
2023-04-09T18:43:18.281Z,15.50
2023-04-09T18:46:04.766Z,15.50
2023-04-09T18:48:52.056Z,15.40
2023-04-09T18:51:38.409Z,15.30
2023-04-09T18:54:25.048Z,15.20
2023-04-09T18:57:15.369Z,15.10
2023-04-09T19:00:03.344Z,15.00
2023-04-09T19:02:54.997Z,14.90
2023-04-09T19:05:41.563Z,14.80
2023-04-09T19:08:30.527Z,14.70
2023-04-09T19:11:19.399Z,14.60
2023-04-09T19:14:06.033Z,14.50
2023-04-09T19:16:52.182Z,14.40
2023-04-09T19:19:38.264Z,14.30
2023-04-09T19:22:24.179Z,14.20
2023-04-09T19:25:10.290Z,14.10
2023-04-09T19:27:57.531Z,14.00
2023-04-09T19:30:43.683Z,14.00
2023-04-09T19:33:29.948Z,13.90
2023-04-09T19:36:16.288Z,13.80
2023-04-09T19:39:03.548Z,13.70
2023-04-09T19:41:50.439Z,13.70
2023-04-09T19:44:38.859Z,13.60
2023-04-09T19:47:26.671Z,13.50
2023-04-09T19:50:12.805Z,13.40
2023-04-09T19:52:58.949Z,13.40
2023-04-09T19:55:45.167Z,13.30
2023-04-09T19:58:32.763Z,13.30
2023-04-09T20:01:19.870Z,13.20
2023-04-09T20:04:06.241Z,13.10
2023-04-09T20:06:52.711Z,13.00
2023-04-09T20:09:42.358Z,12.90
2023-04-09T20:12:29.622Z,12.90
2023-04-09T20:15:17.598Z,12.80
2023-04-09T20:18:03.581Z,12.80
2023-04-09T20:20:50.842Z,12.70
2023-04-09T20:23:36.955Z,12.70
2023-04-09T20:26:23.890Z,12.60
2023-04-09T20:29:12.019Z,12.60
2023-04-09T20:31:58.877Z,12.50
2023-04-09T20:34:46.299Z,12.50
2023-04-09T20:37:32.306Z,12.50
2023-04-09T20:40:18.431Z,12.40
2023-04-09T20:43:07.170Z,12.40
2023-04-09T20:45:53.302Z,12.40
2023-04-09T20:48:41.796Z,12.40
2023-04-09T20:51:28.396Z,12.40
2023-04-09T20:54:17.996Z,12.30
2023-04-09T20:57:05.739Z,12.30
2023-04-09T20:59:53.056Z,12.30
2023-04-09T21:02:40.484Z,12.30
2023-04-09T21:05:28.786Z,12.30
2023-04-09T21:08:15.493Z,12.20
2023-04-09T21:11:02.148Z,12.20
2023-04-09T21:13:56.163Z,12.20
2023-04-09T21:16:42.213Z,12.20
2023-04-09T21:19:28.229Z,12.20
2023-04-09T21:22:13.871Z,12.20
2023-04-09T21:24:59.631Z,12.10
2023-04-09T21:27:46.151Z,12.10
2023-04-09T21:30:33.694Z,12.10
2023-04-09T21:33:19.513Z,12.00
2023-04-09T21:36:07.616Z,12.00
2023-04-09T21:38:54.333Z,12.00
2023-04-09T21:41:40.126Z,12.00
2023-04-09T21:44:25.719Z,11.90
2023-04-09T21:47:12.274Z,11.90
2023-04-09T21:49:59.032Z,11.90
2023-04-09T21:52:46.700Z,11.90
2023-04-09T21:55:32.666Z,11.90
2023-04-09T21:58:18.164Z,11.80
2023-04-09T22:01:03.787Z,11.80
2023-04-09T22:03:50.343Z,11.80
2023-04-09T22:06:36.060Z,11.80
2023-04-09T22:09:21.905Z,11.70
2023-04-09T22:12:07.915Z,11.70
2023-04-09T22:14:54.573Z,11.70
2023-04-09T22:17:40.189Z,11.70
2023-04-09T22:20:26.809Z,11.70
2023-04-09T22:23:13.471Z,11.60
2023-04-09T22:26:03.644Z,11.60
2023-04-09T22:28:50.357Z,11.60
2023-04-09T22:31:37.202Z,11.50
2023-04-09T22:34:23.257Z,11.50
2023-04-09T22:37:09.193Z,11.50
2023-04-09T22:39:55.408Z,11.50
2023-04-09T22:42:46.989Z,11.40
2023-04-09T22:45:32.811Z,11.40
2023-04-09T22:48:19.264Z,11.40
2023-04-09T22:51:05.862Z,11.30
2023-04-09T22:53:51.789Z,11.30
2023-04-09T22:56:37.934Z,11.30
2023-04-09T22:59:30.275Z,11.30
2023-04-09T23:02:20.082Z,11.30
2023-04-09T23:05:07.149Z,11.30
2023-04-09T23:07:53.524Z,11.20
2023-04-09T23:10:39.082Z,11.20
2023-04-09T23:13:25.161Z,11.20
2023-04-09T23:16:11.283Z,11.10
2023-04-09T23:18:57.386Z,11.10
2023-04-09T23:21:43.541Z,11.10
2023-04-09T23:24:29.564Z,11.10
2023-04-09T23:27:16.177Z,11.00
2023-04-09T23:30:03.167Z,11.00
2023-04-09T23:32:49.383Z,11.00
2023-04-09T23:35:35.245Z,11.00
2023-04-09T23:38:20.662Z,11.00
2023-04-09T23:41:06.913Z,11.00
2023-04-09T23:43:53.157Z,10.90
2023-04-09T23:46:39.399Z,10.90
2023-04-09T23:49:28.777Z,10.90
2023-04-09T23:52:14.722Z,10.80
2023-04-09T23:55:00.219Z,10.80
2023-04-09T23:57:46.675Z,10.80
